Time;durP1;ratioP1;P1;durP2;ratioP2;P2;SDS_P1;SDS_P2;PMS_P1;PMS_P2;Temp;Humidity;BMP_temperature;BMP_pressure;BME280_temperature;BME280_humidity;BME280_pressure;Samples;Min_cycle;Max_cycle;Signal;HPM_P1;HPM_P2
2021/05/11 00:01:12;;;;;;;;;18.00;17.25;;;;;11.71;77.84;99581.22;3587166;40;14112;-50
2021/05/11 00:03:41;;;;;;;;;20.25;18.75;;;;;11.59;78.53;99580.25;3581209;40;14690;-51
2021/05/11 00:06:08;;;;;;;;;21.25;17.75;;;;;11.57;79.07;99579.47;3589523;40;10805;-51
2021/05/11 00:08:35;;;;;;;;;20.75;18.00;;;;;11.40;79.77;99585.97;3580455;40;14808;-50
2021/05/11 00:11:02;;;;;;;;;20.33;19.33;;;;;11.52;78.04;99582.47;3581616;40;10404;-49
2021/05/11 00:13:29;;;;;;;;;20.00;17.50;;;;;11.69;78.25;99589.41;3581989;40;14065;-51
2021/05/11 00:15:56;;;;;;;;;20.25;19.75;;;;;11.42;78.48;99576.84;3579849;40;10685;-49
2021/05/11 00:18:23;;;;;;;;;25.00;21.50;;;;;12.01;77.03;99579.16;3581309;40;10869;-49
2021/05/11 00:20:50;;;;;;;;;30.67;25.33;;;;;11.76;78.69;99581.78;3583506;40;10307;-49
2021/05/11 00:23:17;;;;;;;;;25.67;21.67;;;;;12.02;78.27;99580.88;3583455;40;10675;-52
2021/05/11 00:25:43;;;;;;;;;27.67;24.67;;;;;11.36;79.59;99579.09;3584229;40;10542;-54
2021/05/11 00:28:10;;;;;;;;;29.00;26.67;;;;;11.31;79.83;99578.53;3582321;40;10454;-53
2021/05/11 00:30:37;;;;;;;;;31.00;26.00;;;;;11.38;80.10;99586.09;3580706;40;10300;-49
2021/05/11 00:33:04;;;;;;;;;24.00;23.00;;;;;11.56;78.94;99584.00;3579998;40;10450;-52
2021/05/11 00:35:31;;;;;;;;;30.00;26.00;;;;;11.06;80.62;99585.53;3584450;40;10117;-53
2021/05/11 00:37:58;;;;;;;;;25.00;23.00;;;;;11.16;80.03;99585.75;3580808;40;10349;-49
2021/05/11 00:40:25;;;;;;;;;23.00;21.33;;;;;11.12;79.82;99585.13;3584486;40;10616;-51
2021/05/11 00:42:52;;;;;;;;;21.33;19.67;;;;;11.09;80.13;99585.31;3592833;39;10393;-48
2021/05/11 00:45:19;;;;;;;;;26.75;23.25;;;;;11.38;78.95;99577.16;3581804;40;11000;-47
2021/05/11 00:47:46;;;;;;;;;22.33;19.00;;;;;11.18;79.17;99581.16;3580102;40;10346;-50
2021/05/11 00:50:14;;;;;;;;;20.00;18.00;;;;;10.93;80.91;99585.44;3580402;40;10254;-48
2021/05/11 00:52:41;;;;;;;;;21.67;21.67;;;;;11.23;80.47;99589.78;3583892;40;10265;-47
2021/05/11 00:55:10;;;;;;;;;24.00;21.00;;;;;10.88;81.80;99590.25;3581158;40;10287;-48
2021/05/11 00:57:37;;;;;;;;;23.00;20.33;;;;;11.38;79.90;99590.59;3580774;40;10352;-46
2021/05/11 01:00:12;;;;;;;;;26.33;22.67;;;;;11.32;80.63;99591.00;3582158;40;10071;-52
2021/05/11 01:02:39;;;;;;;;;20.67;20.00;;;;;10.98;80.70;99587.84;3577063;40;10617;-52
2021/05/11 01:05:07;;;;;;;;;23.00;20.00;;;;;10.69;83.06;99592.38;3585506;40;10303;-53
2021/05/11 01:07:35;;;;;;;;;23.67;23.67;;;;;10.60;84.01;99590.28;3579021;40;10655;-49
2021/05/11 01:10:03;;;;;;;;;27.00;22.00;;;;;11.24;81.62;99587.94;3580336;40;10115;-48
2021/05/11 01:12:30;;;;;;;;;23.00;22.67;;;;;11.15;81.60;99590.28;3579231;40;10045;-50
2021/05/11 01:14:57;;;;;;;;;23.00;21.00;;;;;10.80;83.18;99599.78;3581134;40;10361;-49
2021/05/11 01:17:30;;;;;;;;;20.67;18.33;;;;;10.84;83.62;99595.91;3579602;40;10647;-51
2021/05/11 01:20:00;;;;;;;;;23.67;23.00;;;;;11.19;82.98;99596.34;3581591;40;9951;-52
2021/05/11 01:25:01;;;;;;;;;25.00;21.33;;;;;11.27;83.27;99587.75;3582777;40;10115;-50
2021/05/11 01:44:08;;;;;;;;;30.67;25.00;;;;;11.07;81.69;99589.06;3584382;40;9912;-50
2021/05/11 01:49:34;;;;;;;;;30.33;27.33;;;;;10.88;81.94;99581.34;3582318;40;9845;-48
2021/05/11 01:52:33;;;;;;;;;26.67;24.67;;;;;10.80;83.58;99589.03;3582236;40;9825;-55
2021/05/11 02:22:42;;;;;;;;;63.67;50.67;;;;;10.69;83.97;99587.00;3581920;40;10256;-52
2021/05/11 02:25:12;;;;;;;;;61.00;46.67;;;;;10.47;85.82;99592.88;3581320;40;10513;-49
2021/05/11 02:27:39;;;;;;;;;59.33;47.00;;;;;10.54;84.94;99589.72;3582527;40;10100;-52
2021/05/11 02:30:08;;;;;;;;;58.33;49.00;;;;;10.26;85.11;99585.16;3583474;40;10167;-51
2021/05/11 02:32:41;;;;;;;;;58.00;44.67;;;;;10.09;86.35;99578.16;3581786;40;10119;-52
2021/05/11 02:35:10;;;;;;;;;55.00;43.33;;;;;10.39;85.77;99584.44;3581073;40;10778;-50
2021/05/11 02:37:38;;;;;;;;;54.33;41.00;;;;;10.51;84.86;99578.31;3582906;40;10251;-53
2021/05/11 02:40:08;;;;;;;;;48.00;40.00;;;;;10.38;84.51;99582.75;3588575;40;10025;-49
2021/05/11 02:42:37;;;;;;;;;48.33;40.67;;;;;10.28;85.28;99583.28;3583709;40;10712;-49
2021/05/11 02:45:10;;;;;;;;;49.00;39.67;;;;;9.61;87.50;99581.97;3580530;40;10732;-51
2021/05/11 02:47:47;;;;;;;;;41.33;37.00;;;;;9.85;87.06;99577.00;3582865;40;9892;-49
2021/05/11 02:50:23;;;;;;;;;38.00;34.67;;;;;10.14;86.32;99582.38;3578438;40;9892;-50
2021/05/11 02:52:51;;;;;;;;;37.33;32.67;;;;;10.37;84.76;99576.47;3583604;40;9985;-51
2021/05/11 02:55:19;;;;;;;;;40.00;35.33;;;;;10.02;85.97;99574.13;3587334;40;9953;-47
2021/05/11 02:57:47;;;;;;;;;34.00;33.33;;;;;10.00;86.50;99577.88;3588157;40;9934;-51
2021/05/11 03:00:17;;;;;;;;;35.67;30.00;;;;;9.92;87.83;99586.38;3587462;40;9901;-52
2021/05/11 03:02:45;;;;;;;;;35.00;28.67;;;;;10.07;86.76;99584.59;3587077;40;9967;-49
2021/05/11 03:05:14;;;;;;;;;39.00;30.00;;;;;10.04;85.73;99577.59;3587284;40;9939;-52
2021/05/11 03:07:42;;;;;;;;;34.33;28.33;;;;;9.71;87.45;99583.16;3586603;40;9859;-50
2021/05/11 03:10:12;;;;;;;;;28.67;27.00;;;;;9.97;87.33;99575.38;3586532;40;9833;-49
2021/05/11 03:12:39;;;;;;;;;27.67;27.00;;;;;10.57;83.64;99582.44;3587818;40;10269;-49
2021/05/11 03:15:08;;;;;;;;;30.33;27.00;;;;;10.16;85.24;99577.78;3586735;40;10372;-53
2021/05/11 03:17:37;;;;;;;;;31.67;26.00;;;;;9.93;85.81;99573.84;3587744;40;9802;-49
2021/05/11 03:20:07;;;;;;;;;30.00;25.33;;;;;9.80;87.41;99577.25;3586530;40;9863;-52
2021/05/11 03:22:34;;;;;;;;;27.00;23.00;;;;;10.11;87.04;99581.63;3587171;40;9871;-52
2021/05/11 03:25:01;;;;;;;;;27.67;23.33;;;;;9.96;87.53;99581.69;3587204;40;9870;-52
2021/05/11 03:27:29;;;;;;;;;28.33;25.00;;;;;9.59;88.36;99576.72;3594846;40;10027;-52
2021/05/11 03:29:56;;;;;;;;;30.67;21.67;;;;;9.78;88.39;99578.31;3587108;40;9924;-50
2021/05/11 03:32:23;;;;;;;;;30.33;26.00;;;;;9.83;87.13;99576.22;3587298;40;9787;-51
2021/05/11 03:34:50;;;;;;;;;31.67;25.00;;;;;9.92;87.26;99575.66;3587783;40;9898;-51
2021/05/11 03:37:17;;;;;;;;;28.33;25.67;;;;;9.76;87.68;99575.72;3587866;40;9775;-51
2021/05/11 03:39:44;;;;;;;;;30.67;23.00;;;;;9.96;87.33;99566.47;3586958;40;9847;-50
2021/05/11 03:42:22;;;;;;;;;0.33;0.33;;;;;10.32;86.80;99568.75;3587495;40;10161;-50
2021/05/11 03:44:56;;;;;;;;;29.33;25.33;;;;;10.85;84.26;99573.47;3587003;40;9800;-49
2021/05/11 03:47:26;;;;;;;;;26.00;23.67;;;;;10.78;84.15;99570.31;3587183;40;9931;-52
2021/05/11 03:49:54;;;;;;;;;27.67;23.00;;;;;10.76;83.91;99567.72;3594757;40;10172;-51
2021/05/11 03:52:21;;;;;;;;;25.33;22.00;;;;;10.77;84.06;99573.97;3586948;40;10050;-48
2021/05/11 03:54:48;;;;;;;;;25.33;23.00;;;;;10.81;84.40;99569.25;3587360;40;9779;-50
2021/05/11 03:57:15;;;;;;;;;30.33;25.33;;;;;11.36;80.36;99574.56;3587215;40;9840;-52
2021/05/11 03:59:43;;;;;;;;;30.33;27.33;;;;;10.82;83.71;99570.97;3586898;40;10021;-47
2021/05/11 04:02:30;;;;;;;;;25.00;23.00;;;;;10.38;84.72;99577.38;3585962;40;10017;-53
2021/05/11 04:05:20;;;;;;;;;28.00;21.67;;;;;10.16;84.65;99577.78;3586119;40;10627;-49
2021/05/11 04:08:08;;;;;;;;;27.67;23.00;;;;;14.56;68.35;99565.63;3592032;40;10268;-52
2021/05/11 04:10:44;;;;;;;;;30.00;24.25;;;;;15.81;63.67;99575.16;3586711;40;10691;-53
2021/05/11 04:18:27;;;;;;;;;22.75;19.00;;;;;17.76;56.39;99577.66;3585913;40;14060;-55
2021/05/11 04:20:55;;;;;;;;;20.25;17.50;;;;;15.07;62.97;99570.47;3586341;40;14167;-51
2021/05/11 04:23:22;;;;;;;;;18.00;16.00;;;;;14.02;67.30;99571.66;3586967;40;14062;-50
2021/05/11 04:25:50;;;;;;;;;18.00;15.00;;;;;12.30;73.41;99562.81;3584329;40;14065;-51
2021/05/11 04:28:17;;;;;;;;;21.25;17.00;;;;;11.74;78.03;99557.69;3586018;40;14029;-50
2021/05/11 04:30:44;;;;;;;;;24.50;22.00;;;;;11.54;78.27;99564.41;3586969;40;14081;-54
2021/05/11 04:33:12;;;;;;;;;21.50;17.25;;;;;12.56;75.23;99568.16;3585863;40;14628;-51
2021/05/11 04:35:39;;;;;;;;;22.75;20.25;;;;;12.60;75.24;99564.28;3586913;40;14079;-52
2021/05/11 04:38:06;;;;;;;;;20.00;17.25;;;;;12.87;74.47;99562.25;3587335;40;14022;-53
2021/05/11 04:40:34;;;;;;;;;27.00;24.25;;;;;12.40;75.11;99566.56;3587249;40;14042;-51
2021/05/11 04:43:01;;;;;;;;;27.50;21.25;;;;;12.54;75.04;99573.66;3585709;40;14046;-51
2021/05/11 04:45:33;;;;;;;;;26.00;22.25;;;;;12.55;76.03;99572.69;3587051;40;14046;-51
2021/05/11 04:48:01;;;;;;;;;23.00;20.25;;;;;12.99;74.83;99579.38;3587185;40;14059;-51
2021/05/11 04:50:29;;;;;;;;;29.25;23.00;;;;;13.22;73.65;99577.69;3586482;40;14093;-52
2021/05/11 04:52:57;;;;;;;;;24.25;21.00;;;;;13.46;72.35;99579.56;3586025;40;14031;-51
2021/05/11 04:55:25;;;;;;;;;24.00;22.50;;;;;14.64;68.58;99583.88;3586254;40;14000;-52
2021/05/11 04:57:52;;;;;;;;;20.00;19.00;;;;;19.55;52.93;99587.66;3588461;40;14061;-51
2021/05/11 05:00:20;;;;;;;;;19.25;18.25;;;;;20.61;49.72;99585.84;3588476;40;14076;-50
2021/05/11 05:02:50;;;;;;;;;22.25;19.00;;;;;18.94;53.04;99584.59;3588085;40;14036;-52
2021/05/11 05:05:17;;;;;;;;;24.25;20.50;;;;;14.69;66.95;99587.97;3587300;40;14145;-49
2021/05/11 05:07:45;;;;;;;;;24.50;18.25;;;;;14.20;70.56;99582.88;3588074;40;14100;-53
2021/05/11 05:10:13;;;;;;;;;18.00;18.00;;;;;14.92;68.85;99577.13;3588003;40;14055;-50
2021/05/11 05:12:45;;;;;;;;;21.25;20.00;;;;;15.79;64.80;99583.41;3588001;40;14051;-50
2021/05/11 05:15:14;;;;;;;;;28.00;22.75;;;;;16.50;63.15;99582.72;3587959;40;14075;-52
2021/05/11 05:17:41;;;;;;;;;23.00;17.50;;;;;15.23;66.84;99585.44;3586695;40;14025;-50
2021/05/11 05:20:10;;;;;;;;;21.00;19.00;;;;;16.18;63.42;99582.84;3588125;40;14058;-50
2021/05/11 05:22:38;;;;;;;;;22.50;18.50;;;;;15.08;67.01;99576.72;3587432;40;14039;-52
2021/05/11 05:25:12;;;;;;;;;21.00;19.25;;;;;15.61;65.60;99576.81;3595658;40;14051;-52
2021/05/11 05:27:56;;;;;;;;;24.00;20.50;;;;;15.66;64.93;99584.56;3580723;40;14067;-49
2021/05/11 05:30:24;;;;;;;;;15.50;15.00;;;;;15.86;63.74;99578.34;3588009;40;14606;-53
2021/05/11 05:32:59;;;;;;;;;16.00;15.25;;;;;16.30;61.71;99581.78;3588066;40;14040;-52
2021/05/11 05:35:26;;;;;;;;;18.50;15.00;;;;;16.23;62.76;99575.19;3588114;40;14001;-51
2021/05/11 05:37:53;;;;;;;;;17.00;17.00;;;;;15.77;65.00;99579.13;3595542;40;14589;-49
2021/05/11 05:40:22;;;;;;;;;16.75;14.00;;;;;16.26;63.21;99580.31;3587295;40;14052;-51
2021/05/11 05:42:49;;;;;;;;;16.00;14.25;;;;;15.99;63.25;99581.72;3588277;40;14032;-51
2021/05/11 05:45:17;;;;;;;;;16.00;14.25;;;;;16.34;63.04;99583.22;3588310;40;14578;-50
2021/05/11 05:47:51;;;;;;;;;15.00;13.25;;;;;16.64;62.18;99578.78;3588160;40;14010;-51
2021/05/11 05:50:26;;;;;;;;;12.00;12.00;;;;;16.38;62.73;99573.84;3587763;40;13993;-53
2021/05/11 05:53:09;;;;;;;;;14.25;13.00;;;;;16.73;61.22;99577.13;3586064;40;14623;-51
2021/05/11 05:55:36;;;;;;;;;13.00;10.50;;;;;16.71;61.69;99569.13;3595303;40;14231;-49
2021/05/11 05:58:03;;;;;;;;;14.25;12.75;;;;;16.61;60.81;99577.25;3587720;40;14003;-53
2021/05/11 06:00:30;;;;;;;;;14.25;10.50;;;;;16.43;61.48;99573.44;3587426;40;14061;-51
2021/05/11 06:03:19;;;;;;;;;13.50;12.00;;;;;16.80;60.92;99573.78;3577323;40;14050;-54
2021/05/11 06:05:46;;;;;;;;;13.75;12.75;;;;;17.37;59.19;99579.47;3591810;40;14061;-52
2021/05/11 06:08:14;;;;;;;;;13.00;12.25;;;;;17.24;60.73;99581.59;3587371;40;14051;-51
2021/05/11 06:10:41;;;;;;;;;13.50;11.50;;;;;17.20;59.18;99580.19;3586820;40;14021;-51
2021/05/11 06:13:16;;;;;;;;;9.25;7.25;;;;;17.50;59.15;99576.50;3587595;40;14218;-50
2021/05/11 06:18:29;;;;;;;;;9.75;9.00;;;;;18.08;56.84;99575.66;3587927;40;14459;-51
2021/05/11 06:20:57;;;;;;;;;13.25;10.75;;;;;18.25;55.85;99574.06;3587341;40;13977;-52
2021/05/11 06:23:24;;;;;;;;;10.00;10.00;;;;;18.12;55.96;99580.66;3587478;40;14164;-52
2021/05/11 06:25:51;;;;;;;;;10.25;9.50;;;;;18.50;56.05;99570.69;3584705;40;13954;-47
2021/05/11 06:28:19;;;;;;;;;11.00;10.75;;;;;18.84;54.16;99579.19;3577751;40;13958;-48
2021/05/11 06:30:46;;;;;;;;;10.00;10.00;;;;;18.89;53.14;99577.88;3577657;40;14498;-49
2021/05/11 06:33:13;;;;;;;;;12.00;11.00;;;;;18.90;53.90;99583.16;3578807;40;13970;-53
2021/05/11 06:35:40;;;;;;;;;11.00;10.00;;;;;19.35;53.25;99584.19;3587793;40;14042;-51
2021/05/11 06:38:08;;;;;;;;;12.50;11.75;;;;;19.69;51.01;99581.69;3587152;40;13429;-49
2021/05/11 06:40:38;;;;;;;;;11.00;10.00;;;;;19.99;51.02;99582.31;3587784;40;13548;-52
2021/05/11 06:43:05;;;;;;;;;9.00;9.00;;;;;19.92;49.61;99587.53;3586894;40;12910;-50
2021/05/11 06:46:05;;;;;;;;;14.00;11.00;;;;;19.95;50.99;99584.50;3586964;40;12599;-51
2021/05/11 06:48:25;;;;;;;;;11.00;9.25;;;;;20.79;49.55;99583.91;3587409;40;12768;-51
2021/05/11 06:53:40;;;;;;;;;11.00;11.00;;;;;21.38;48.16;99586.75;3587412;40;12695;-50
2021/05/11 06:56:10;;;;;;;;;13.00;10.50;;;;;21.75;47.20;99579.13;3587550;40;12384;-50
2021/05/11 06:58:39;;;;;;;;;9.75;9.75;;;;;21.54;47.72;99587.78;3586639;40;12395;-51
2021/05/11 07:01:06;;;;;;;;;10.75;9.25;;;;;21.00;47.78;99579.91;3584051;40;12077;-49
2021/05/11 07:03:34;;;;;;;;;10.75;9.50;;;;;21.64;46.38;99583.91;3577782;40;12007;-52
2021/05/11 07:06:02;;;;;;;;;9.50;8.75;;;;;21.84;45.46;99578.13;3577569;40;12024;-51
2021/05/11 07:11:22;;;;;;;;;7.75;7.75;;;;;21.88;45.86;99568.53;3584670;40;11695;-52
2021/05/11 07:13:51;;;;;;;;;11.50;10.00;;;;;22.53;44.42;99565.78;3591437;40;11727;-52
2021/05/11 07:16:18;;;;;;;;;7.50;7.50;;;;;22.20;45.47;99565.00;3577801;40;12176;-53
2021/05/11 07:18:46;;;;;;;;;10.00;9.00;;;;;22.55;44.32;99565.59;3584836;40;11233;-55
2021/05/11 07:21:14;;;;;;;;;9.25;8.25;;;;;22.45;43.94;99560.31;3587080;40;11004;-53
2021/05/11 07:23:42;;;;;;;;;9.00;7.00;;;;;22.92;42.63;99556.75;3587290;40;10865;-52
2021/05/11 07:26:28;;;;;;;;;8.50;8.50;;;;;23.24;44.27;99554.94;3586516;40;10763;-48
2021/05/11 07:29:38;;;;;;;;;8.25;6.75;;;;;23.16;43.63;99539.38;3585044;40;10860;-51
2021/05/11 07:32:00;;;;;;;;;10.50;8.00;;;;;22.57;43.57;99539.78;3577005;40;10764;-52
2021/05/11 07:34:29;;;;;;;;;7.00;7.00;;;;;23.32;43.78;99537.59;3581881;40;10940;-53
2021/05/11 07:36:56;;;;;;;;;6.25;6.25;;;;;23.00;43.50;99540.31;3580167;40;11063;-56
2021/05/11 07:39:24;;;;;;;;;7.25;7.00;;;;;23.33;42.44;99531.94;3577683;40;10756;-50
2021/05/11 07:41:51;;;;;;;;;8.25;7.00;;;;;24.53;41.28;99540.41;3586800;40;10715;-53
2021/05/11 07:44:18;;;;;;;;;7.00;7.00;;;;;23.47;42.54;99533.06;3586719;40;10470;-54
2021/05/11 07:50:05;;;;;;;;;9.00;7.00;;;;;23.31;41.76;99531.28;3587515;40;10798;-55
2021/05/11 08:16:41;;;;;;;;;10.00;7.00;;;;;24.95;38.45;99533.38;3586727;40;9718;-51
2021/05/11 08:30:00;;;;;;;;;7.00;7.00;;;;;25.69;35.71;99539.75;3576732;40;9890;-54
2021/05/11 08:32:27;;;;;;;;;6.25;6.00;;;;;27.02;35.63;99549.09;3576765;40;9814;-53
2021/05/11 08:34:55;;;;;;;;;6.00;4.25;;;;;26.25;34.92;99546.25;3579513;40;9765;-53
2021/05/11 08:37:22;;;;;;;;;6.75;5.50;;;;;25.78;34.55;99533.94;3580266;40;9790;-54
2021/05/11 08:39:53;;;;;;;;;5.00;5.00;;;;;26.45;34.68;99549.13;3585325;40;9746;-54
2021/05/11 08:42:21;;;;;;;;;6.00;5.75;;;;;26.52;34.23;99537.38;3579543;40;9800;-54
2021/05/11 08:44:48;;;;;;;;;6.25;6.25;;;;;26.90;34.50;99538.63;3579912;40;9821;-54
2021/05/11 08:47:18;;;;;;;;;5.50;5.25;;;;;26.38;34.55;99537.22;3583357;40;9840;-54
2021/05/11 08:49:46;;;;;;;;;5.25;5.00;;;;;26.64;34.32;99538.50;3579734;40;10040;-54
2021/05/11 09:15:41;;;;;;;;;5.25;5.25;;;;;26.59;32.04;99530.81;3576049;40;9743;-53
2021/05/11 09:45:38;;;;;;;;;5.50;5.50;;;;;27.81;31.96;99520.13;3583897;40;9809;-55
2021/05/11 10:49:33;;;;;;;;;6.25;5.75;;;;;27.98;29.71;99447.72;3577876;40;10197;-55
2021/05/11 10:52:24;;;;;;;;;5.00;5.00;;;;;28.04;29.25;99451.53;3576733;40;9838;-55
2021/05/11 10:55:16;;;;;;;;;5.50;4.00;;;;;28.69;29.52;99450.78;3577489;40;9738;-55
2021/05/11 11:00:31;;;;;;;;;4.25;4.25;;;;;28.15;29.27;99453.66;3577744;40;9821;-55
2021/05/11 11:03:14;;;;;;;;;6.75;5.75;;;;;28.14;29.66;99451.09;3585043;40;9924;-51
2021/05/11 11:06:00;;;;;;;;;6.00;6.00;;;;;28.85;29.91;99447.53;3577613;40;9779;-54
2021/05/11 11:08:39;;;;;;;;;5.00;5.00;;;;;28.72;28.69;99448.44;3577756;40;9795;-55
2021/05/11 11:11:17;;;;;;;;;4.50;4.50;;;;;28.53;28.28;99450.19;3577797;40;9782;-53
2021/05/11 11:13:50;;;;;;;;;6.25;5.25;;;;;28.20;29.17;99440.06;3577866;40;9783;-54
2021/05/11 11:16:38;;;;;;;;;6.75;5.25;;;;;28.43;29.04;99441.47;3577277;40;9895;-54
2021/05/11 11:19:11;;;;;;;;;4.00;4.00;;;;;28.78;29.05;99438.41;3577716;40;10325;-54
2021/05/11 11:24:38;;;;;;;;;6.00;6.00;;;;;28.44;29.38;99421.13;3577927;40;9719;-55
2021/05/11 11:27:06;;;;;;;;;6.75;5.00;;;;;28.80;30.07;99422.47;3585181;40;9781;-54
2021/05/11 11:29:33;;;;;;;;;6.00;6.00;;;;;29.05;30.00;99425.38;3587692;40;9820;-53
2021/05/11 11:32:01;;;;;;;;;7.00;5.00;;;;;29.95;29.86;99423.22;3587911;40;9745;-53
2021/05/11 11:34:32;;;;;;;;;7.75;7.25;;;;;28.56;29.53;99415.78;3586933;40;9968;-54
2021/05/11 11:37:15;;;;;;;;;7.00;5.25;;;;;29.36;29.39;99413.47;3587224;40;9789;-56
2021/05/11 11:39:48;;;;;;;;;6.25;6.25;;;;;29.08;29.94;99414.69;3587530;40;9793;-56
2021/05/11 11:42:19;;;;;;;;;8.50;7.00;;;;;29.30;29.00;99411.59;3587785;40;9723;-55
2021/05/11 11:44:51;;;;;;;;;5.75;5.75;;;;;29.19;30.24;99415.91;3587493;40;10002;-54
2021/05/11 11:47:22;;;;;;;;;6.25;5.00;;;;;28.76;29.83;99404.66;3594368;40;10424;-48
2021/05/11 11:49:56;;;;;;;;;5.75;5.75;;;;;29.39;29.81;99403.88;3587172;40;9838;-47
2021/05/11 11:52:29;;;;;;;;;8.00;6.50;;;;;29.48;29.37;99391.47;3587558;40;9743;-46
2021/05/11 11:57:54;;;;;;;;;7.25;5.75;;;;;28.40;29.92;99384.75;3587724;40;9770;-50
2021/05/11 12:00:36;;;;;;;;;5.75;5.75;;;;;28.76;29.00;99372.34;3586962;40;9723;-46
2021/05/11 12:03:10;;;;;;;;;7.50;5.75;;;;;29.32;28.75;99377.09;3587000;40;9985;-49
2021/05/11 12:05:59;;;;;;;;;6.50;5.75;;;;;28.74;29.34;99363.41;3587358;40;9787;-46
2021/05/11 12:08:29;;;;;;;;;6.50;6.00;;;;;28.63;28.69;99362.19;3587420;40;9799;-50
2021/05/11 12:11:08;;;;;;;;;7.25;5.50;;;;;29.22;29.59;99362.06;3585958;40;9786;-48
2021/05/11 12:13:38;;;;;;;;;6.75;5.00;;;;;28.53;29.20;99345.22;3587236;40;9720;-51
2021/05/11 12:16:19;;;;;;;;;5.00;5.00;;;;;28.71;29.14;99355.56;3586361;40;9741;-50
2021/05/11 12:19:12;;;;;;;;;5.50;4.25;;;;;29.00;30.02;99347.75;3587517;40;9991;-50
2021/05/11 12:21:55;;;;;;;;;6.50;6.00;;;;;28.48;28.31;99347.81;3587555;40;9994;-47
2021/05/11 12:24:28;;;;;;;;;7.00;6.00;;;;;28.59;29.08;99341.59;3587487;40;9766;-46
2021/05/11 12:27:21;;;;;;;;;5.50;5.50;;;;;28.98;29.74;99336.91;3579899;40;9737;-48
2021/05/11 12:30:18;;;;;;;;;6.00;6.00;;;;;28.37;28.77;99334.66;3584757;40;9783;-44
2021/05/11 12:32:45;;;;;;;;;7.00;6.25;;;;;28.85;29.60;99331.47;3574362;40;9735;-45
2021/05/11 12:35:17;;;;;;;;;5.00;5.00;;;;;28.53;28.77;99323.13;3577000;40;9743;-49
2021/05/11 12:37:54;;;;;;;;;6.00;6.00;;;;;29.04;29.13;99313.94;3576986;40;9812;-48
2021/05/11 12:40:32;;;;;;;;;4.75;4.75;;;;;29.62;29.28;99314.72;3576789;40;9774;-45
2021/05/11 12:43:02;;;;;;;;;6.00;5.00;;;;;28.44;29.33;99310.66;3577129;40;9935;-50
2021/05/11 12:45:39;;;;;;;;;7.25;5.25;;;;;28.80;29.31;99312.78;3577237;40;9874;-50
2021/05/11 12:48:11;;;;;;;;;8.50;6.00;;;;;28.73;29.24;99303.69;3577296;40;9799;-46
2021/05/11 12:50:41;;;;;;;;;6.75;6.00;;;;;28.73;29.16;99294.56;3576575;40;9996;-46
2021/05/11 12:53:30;;;;;;;;;7.75;6.50;;;;;28.48;29.58;99292.56;3576618;40;9893;-48
2021/05/11 13:25:48;;;;;;;;;8.00;5.00;;;;;28.66;29.45;99247.63;3582820;40;9970;-49
2021/05/11 13:36:13;;;;;;;;;6.00;5.00;;;;;28.74;30.28;99244.59;3583483;40;9713;-48
2021/05/11 13:38:40;;;;;;;;;6.50;5.75;;;;;29.00;29.63;99234.41;3581944;40;9967;-47
2021/05/11 13:41:08;;;;;;;;;7.75;6.00;;;;;28.38;30.02;99234.16;3581861;40;9753;-49
2021/05/11 13:43:35;;;;;;;;;5.75;5.75;;;;;28.51;30.06;99234.09;3582349;40;9845;-48
2021/05/11 13:46:02;;;;;;;;;4.00;4.00;;;;;28.83;30.54;99234.97;3581940;40;9975;-48
2021/05/11 13:48:38;;;;;;;;;6.25;6.00;;;;;28.52;29.60;99233.06;3589300;40;9814;-51
2021/05/11 13:53:42;;;;;;;;;8.25;7.00;;;;;28.95;29.41;99226.78;3583273;40;9832;-47
2021/05/11 14:04:09;;;;;;;;;6.00;5.00;;;;;28.92;29.21;99210.66;3581954;40;9858;-47
2021/05/11 14:06:37;;;;;;;;;6.00;6.00;;;;;28.41;29.33;99209.72;3581638;40;10325;-47
2021/05/11 14:09:06;;;;;;;;;6.00;6.00;;;;;28.80;30.31;99198.63;3578858;40;9723;-46
2021/05/11 14:11:36;;;;;;;;;6.00;6.00;;;;;28.45;29.81;99199.94;3578878;40;9912;-47
2021/05/11 14:14:04;;;;;;;;;6.00;5.00;;;;;28.35;30.31;99202.31;3578646;40;9719;-48
2021/05/11 14:16:31;;;;;;;;;5.75;5.00;;;;;28.30;29.95;99193.00;3578855;40;9719;-50
2021/05/11 14:18:59;;;;;;;;;7.25;5.75;;;;;28.58;30.32;99198.16;3578245;40;10122;-46
2021/05/11 14:21:26;;;;;;;;;7.00;4.75;;;;;28.88;29.77;99187.28;3577615;40;9859;-49
2021/05/11 14:23:56;;;;;;;;;6.00;5.25;;;;;28.94;29.23;99186.41;3578467;40;10195;-45
2021/05/11 14:26:25;;;;;;;;;5.00;4.50;;;;;28.90;29.77;99185.16;3578565;40;10189;-51
2021/05/11 14:28:54;;;;;;;;;6.00;6.00;;;;;28.89;29.48;99177.94;3578470;40;9923;-47
2021/05/11 14:31:21;;;;;;;;;5.75;5.75;;;;;28.78;30.09;99175.91;3578524;40;9720;-47
2021/05/11 14:33:49;;;;;;;;;5.75;5.75;;;;;28.43;29.96;99179.97;3578760;40;9791;-51
2021/05/11 14:36:17;;;;;;;;;5.25;5.00;;;;;29.24;30.54;99160.84;3577841;40;9724;-44
2021/05/11 14:38:44;;;;;;;;;8.25;6.00;;;;;29.57;29.89;99167.91;3578469;40;9723;-46
2021/05/11 14:41:12;;;;;;;;;6.00;6.00;;;;;28.87;29.25;99166.25;3578704;40;10246;-51
2021/05/11 14:43:41;;;;;;;;;5.00;4.50;;;;;28.92;29.88;99160.91;3578649;40;9759;-49
2021/05/11 14:46:10;;;;;;;;;6.25;5.75;;;;;28.45;29.70;99165.97;3578439;40;9784;-48
2021/05/11 14:48:39;;;;;;;;;4.50;4.50;;;;;28.38;29.53;99163.19;3586103;40;9745;-49
2021/05/11 14:51:07;;;;;;;;;6.00;6.00;;;;;28.19;29.36;99164.19;3578149;40;9734;-50
2021/05/11 14:53:37;;;;;;;;;5.25;5.25;;;;;28.65;29.79;99155.63;3577976;40;9805;-46
2021/05/11 14:56:08;;;;;;;;;7.00;6.25;;;;;28.20;30.18;99163.09;3578471;40;9773;-48
2021/05/11 14:58:37;;;;;;;;;4.00;4.00;;;;;28.58;29.78;99154.81;3578221;40;10185;-49
2021/05/11 15:01:04;;;;;;;;;7.75;6.00;;;;;28.77;29.78;99149.34;3578645;40;9832;-50
2021/05/11 15:03:32;;;;;;;;;8.75;5.75;;;;;28.23;29.55;99144.19;3578518;40;9753;-47
2021/05/11 15:06:18;;;;;;;;;6.25;5.75;;;;;28.80;28.78;99146.13;3578535;40;9718;-49
2021/05/11 15:08:49;;;;;;;;;5.75;3.75;;;;;29.28;28.75;99142.69;3582093;40;9826;-46
2021/05/11 15:11:16;;;;;;;;;7.50;6.00;;;;;28.10;29.12;99141.53;3581105;40;9776;-50
2021/05/11 15:13:45;;;;;;;;;10.75;4.75;;;;;28.66;30.02;99140.72;3584552;40;10187;-49
2021/05/11 15:16:19;;;;;;;;;5.75;5.75;;;;;28.14;29.48;99126.19;3581158;40;9827;-48
2021/05/11 15:18:47;;;;;;;;;4.75;4.75;;;;;28.07;29.90;99130.06;3580703;40;9773;-49
2021/05/11 15:21:15;;;;;;;;;6.00;5.00;;;;;28.44;30.14;99134.75;3582645;40;9798;-49
2021/05/11 15:23:44;;;;;;;;;8.00;5.25;;;;;28.66;31.04;99121.38;3582200;40;9737;-49
2021/05/11 15:26:13;;;;;;;;;6.25;5.00;;;;;28.47;29.82;99118.81;3582901;40;9797;-49
2021/05/11 15:28:41;;;;;;;;;7.00;7.00;;;;;28.84;30.23;99119.75;3582980;40;9773;-49
2021/05/11 15:31:08;;;;;;;;;5.50;5.00;;;;;28.83;29.27;99113.38;3581575;40;9798;-49
2021/05/11 15:33:36;;;;;;;;;5.50;5.50;;;;;28.43;29.55;99112.81;3580866;40;9764;-47
2021/05/11 15:36:04;;;;;;;;;5.00;5.00;;;;;28.50;29.93;99119.19;3582193;40;9878;-47
2021/05/11 15:38:32;;;;;;;;;5.50;5.00;;;;;28.09;29.75;99112.22;3580833;40;9774;-45
2021/05/11 15:41:00;;;;;;;;;6.00;5.00;;;;;28.79;30.15;99111.28;3584969;40;9717;-47
2021/05/11 15:43:27;;;;;;;;;7.50;6.00;;;;;28.90;30.36;99107.75;3579138;40;9818;-50
2021/05/11 15:45:55;;;;;;;;;5.00;5.00;;;;;28.32;29.54;99108.03;3585670;40;9968;-49
2021/05/11 15:48:23;;;;;;;;;7.00;5.50;;;;;28.03;30.55;99104.84;3582459;40;9781;-46
2021/05/11 15:50:54;;;;;;;;;6.00;4.50;;;;;28.18;29.42;99102.59;3582721;40;9841;-45
2021/05/11 15:53:21;;;;;;;;;4.50;4.50;;;;;28.09;30.89;99109.44;3583871;40;9911;-45
2021/05/11 15:55:48;;;;;;;;;7.50;6.75;;;;;27.98;29.70;99099.13;3580572;40;10023;-46
2021/05/11 15:58:17;;;;;;;;;6.50;6.50;;;;;27.73;30.28;99102.66;3581599;40;9777;-53
2021/05/11 16:00:51;;;;;;;;;9.25;6.00;;;;;27.83;30.00;99090.31;3581340;40;9734;-48
2021/05/11 16:03:19;;;;;;;;;5.25;5.25;;;;;28.29;30.95;99092.75;3581388;40;10339;-46
2021/05/11 16:05:48;;;;;;;;;7.00;5.75;;;;;27.82;30.70;99088.63;3582505;40;9725;-49
2021/05/11 16:08:17;;;;;;;;;7.50;4.75;;;;;27.56;30.46;99084.91;3580505;40;9844;-46
2021/05/11 16:10:46;;;;;;;;;5.75;5.75;;;;;27.58;31.24;99083.59;3583265;40;10334;-44
2021/05/11 16:13:17;;;;;;;;;7.00;5.50;;;;;27.66;30.61;99077.00;3581747;40;9902;-47
2021/05/11 16:15:44;;;;;;;;;3.75;3.00;;;;;27.52;30.93;99073.47;3588482;40;9710;-45